createdAt,value
2023-08-20T00:01:36.550Z,56.72
2023-08-20T00:04:04.627Z,54.72
2023-08-20T00:06:33.473Z,57.05
2023-08-20T00:09:01.259Z,57.97
2023-08-20T00:11:28.580Z,52.90
2023-08-20T00:13:55.660Z,53.20
2023-08-20T00:16:22.986Z,54.83
2023-08-20T00:18:50.198Z,57.40
2023-08-20T00:21:17.651Z,59.22
2023-08-20T00:23:44.853Z,61.03
2023-08-20T00:26:14.030Z,63.45
2023-08-20T00:28:41.900Z,61.92
2023-08-20T00:31:09.067Z,61.33
2023-08-20T00:33:36.707Z,56.13
2023-08-20T00:36:04.037Z,55.22
2023-08-20T00:38:31.711Z,54.33
2023-08-20T00:40:59.607Z,56.30
2023-08-20T00:43:26.831Z,52.20
2023-08-20T00:45:54.707Z,52.35
2023-08-20T00:48:22.183Z,54.40
2023-08-20T00:50:49.856Z,51.63
2023-08-20T00:53:18.231Z,54.33
2023-08-20T00:55:46.636Z,50.63
2023-08-20T00:58:14.257Z,56.33
2023-08-20T01:00:41.512Z,57.42
2023-08-20T01:03:10.896Z,55.25
2023-08-20T01:05:45.395Z,55.40
2023-08-20T01:08:23.452Z,51.83
2023-08-20T01:10:59.306Z,49.45
2023-08-20T01:13:27.065Z,50.53
2023-08-20T01:15:54.497Z,55.33
2023-08-20T01:18:21.761Z,55.95
2023-08-20T01:20:54.365Z,57.60
2023-08-20T01:23:58.580Z,56.10
2023-08-20T01:26:51.098Z,50.15
2023-08-20T01:29:18.811Z,51.03
2023-08-20T01:31:46.492Z,48.63
2023-08-20T01:34:14.416Z,48.42
2023-08-20T01:36:41.746Z,46.13
2023-08-20T01:39:11.861Z,47.47
2023-08-20T01:41:39.291Z,47.80
2023-08-20T01:44:06.695Z,48.42
2023-08-20T01:46:34.086Z,50.28
2023-08-20T01:49:01.336Z,48.35
2023-08-20T01:51:29.477Z,50.92
2023-08-20T01:53:58.459Z,44.72
2023-08-20T01:56:25.687Z,44.97
2023-08-20T01:58:52.880Z,45.15
2023-08-20T02:01:21.179Z,47.40
2023-08-20T02:03:48.244Z,50.33
2023-08-20T02:06:15.342Z,52.65
2023-08-20T02:08:45.954Z,51.70
2023-08-20T02:11:12.941Z,43.78
2023-08-20T02:13:40.036Z,39.45
2023-08-20T02:16:08.106Z,44.42
2023-08-20T02:18:35.389Z,46.78
2023-08-20T02:21:02.405Z,47.90
2023-08-20T02:23:29.586Z,44.55
2023-08-20T02:25:57.169Z,42.95
2023-08-20T02:28:24.291Z,42.75
2023-08-20T02:30:51.950Z,40.33
2023-08-20T02:33:19.087Z,40.10
2023-08-20T02:35:46.363Z,39.42
2023-08-20T02:38:13.413Z,42.00
2023-08-20T02:40:44.735Z,45.83
2023-08-20T02:43:13.163Z,48.25
2023-08-20T02:45:46.639Z,43.58
2023-08-20T02:48:15.199Z,40.28
2023-08-20T02:50:42.613Z,38.50
2023-08-20T02:53:09.895Z,38.05
2023-08-20T02:55:36.918Z,44.63
2023-08-20T02:58:05.141Z,44.35
2023-08-20T03:00:32.722Z,52.67
2023-08-20T03:02:59.990Z,50.00
2023-08-20T03:05:27.345Z,48.20
2023-08-20T03:07:57.612Z,48.83
2023-08-20T03:10:24.954Z,49.00
2023-08-20T03:12:51.952Z,51.50
2023-08-20T03:15:19.021Z,54.72
2023-08-20T03:17:46.135Z,49.97
2023-08-20T03:20:13.497Z,55.53
2023-08-20T03:22:40.545Z,51.58
2023-08-20T03:25:08.271Z,51.63
2023-08-20T03:27:35.713Z,51.30
2023-08-20T03:30:05.118Z,54.30
2023-08-20T03:32:33.284Z,50.78
2023-08-20T03:35:02.883Z,47.88
2023-08-20T03:37:30.318Z,47.13
2023-08-20T03:39:58.190Z,46.17
2023-08-20T03:42:25.099Z,48.20
2023-08-20T03:44:52.139Z,47.13
2023-08-20T03:47:21.708Z,47.90
2023-08-20T03:49:49.613Z,43.75
2023-08-20T03:52:16.875Z,42.83
2023-08-20T03:54:43.910Z,41.05
2023-08-20T03:57:10.923Z,38.72
2023-08-20T03:59:37.951Z,35.10
2023-08-20T04:02:05.248Z,34.47
2023-08-20T04:04:32.818Z,33.80
2023-08-20T04:07:00.181Z,30.33
2023-08-20T04:09:27.105Z,27.73
2023-08-20T04:11:54.179Z,27.55
2023-08-20T04:14:21.208Z,27.17
2023-08-20T04:16:48.275Z,26.63
2023-08-20T04:19:15.229Z,24.48
2023-08-20T04:21:42.511Z,23.73
2023-08-20T04:24:09.919Z,23.45
2023-08-20T04:26:37.159Z,23.90
2023-08-20T04:29:04.439Z,22.60
2023-08-20T04:31:31.583Z,21.85
2023-08-20T04:34:04.378Z,20.60
2023-08-20T04:36:39.854Z,20.20
2023-08-20T04:39:06.945Z,20.17
2023-08-20T04:41:37.096Z,20.50
2023-08-20T04:44:04.859Z,17.80
2023-08-20T04:46:31.874Z,18.60
2023-08-20T04:48:59.348Z,20.98
2023-08-20T04:51:26.380Z,20.20
2023-08-20T04:53:53.537Z,20.13
2023-08-20T04:56:20.566Z,19.38
2023-08-20T04:58:47.693Z,20.23
2023-08-20T05:01:28.082Z,20.00
2023-08-20T05:03:55.229Z,19.70
2023-08-20T05:06:22.559Z,17.63
2023-08-20T05:08:49.598Z,17.70
2023-08-20T05:11:16.738Z,18.17
2023-08-20T05:13:46.460Z,18.80
2023-08-20T05:16:14.071Z,19.13
2023-08-20T05:18:41.222Z,18.27
2023-08-20T05:21:08.379Z,16.42
2023-08-20T05:23:37.870Z,17.58
2023-08-20T05:26:04.888Z,20.95
2023-08-20T05:28:32.626Z,21.17
2023-08-20T05:31:00.370Z,20.95
2023-08-20T05:33:27.862Z,20.83
2023-08-20T05:35:56.221Z,21.95
2023-08-20T05:38:23.586Z,21.65
2023-08-20T05:40:51.805Z,22.92
2023-08-20T05:43:18.918Z,23.55
2023-08-20T05:45:46.203Z,21.88
2023-08-20T05:48:18.835Z,21.40
2023-08-20T05:50:46.253Z,22.20
2023-08-20T05:53:13.418Z,23.77
2023-08-20T05:55:44.476Z,22.98
2023-08-20T05:58:12.471Z,22.50
2023-08-20T06:00:39.710Z,18.58
2023-08-20T06:03:08.688Z,20.33
2023-08-20T06:05:36.082Z,21.33
2023-08-20T06:08:03.322Z,23.35
2023-08-20T06:10:30.501Z,24.67
2023-08-20T06:12:58.370Z,23.45
2023-08-20T06:15:25.773Z,22.75
2023-08-20T06:17:52.879Z,19.83
2023-08-20T06:20:20.090Z,20.65
2023-08-20T06:22:47.538Z,19.65
2023-08-20T06:25:14.685Z,18.00
2023-08-20T06:27:43.004Z,17.00
2023-08-20T06:30:10.895Z,16.05
2023-08-20T06:32:37.937Z,15.02
2023-08-20T06:35:05.617Z,14.75
2023-08-20T06:37:33.277Z,16.13
2023-08-20T06:40:00.758Z,14.18
2023-08-20T06:42:27.952Z,14.10
2023-08-20T06:44:55.437Z,11.88
2023-08-20T06:47:22.469Z,13.30
2023-08-20T06:49:50.749Z,13.80
2023-08-20T06:52:18.299Z,12.50
2023-08-20T06:54:46.239Z,12.27
2023-08-20T06:57:13.442Z,11.38
2023-08-20T06:59:40.629Z,11.63
2023-08-20T07:02:07.751Z,11.43
2023-08-20T07:04:35.330Z,10.75
2023-08-20T07:07:02.496Z,10.98
2023-08-20T07:09:29.696Z,10.02
2023-08-20T07:11:57.122Z,10.15
2023-08-20T07:14:24.343Z,9.05
2023-08-20T07:16:51.439Z,9.60
2023-08-20T07:19:18.882Z,9.43
2023-08-20T07:21:46.082Z,8.48
2023-08-20T07:24:13.331Z,8.55
2023-08-20T07:26:40.788Z,8.95
2023-08-20T07:29:07.898Z,7.70
2023-08-20T07:31:39.654Z,7.30
2023-08-20T07:36:39.881Z,8.32
2023-08-20T07:39:07.115Z,7.93
2023-08-20T07:41:34.304Z,7.72
2023-08-20T07:44:01.453Z,8.27
2023-08-20T07:46:28.710Z,8.02
2023-08-20T07:48:55.893Z,7.20
2023-08-20T07:51:23.108Z,7.95
2023-08-20T07:53:50.233Z,8.50
2023-08-20T07:56:17.252Z,8.10
2023-08-20T07:58:44.570Z,8.60
2023-08-20T08:01:11.609Z,7.53
2023-08-20T08:03:39.031Z,7.97
2023-08-20T08:06:06.411Z,7.53
2023-08-20T08:08:33.544Z,7.53
2023-08-20T08:11:00.800Z,7.65
2023-08-20T08:13:28.042Z,7.93
2023-08-20T08:15:55.531Z,7.70
2023-08-20T08:18:22.983Z,7.97
2023-08-20T08:20:50.722Z,8.15
2023-08-20T08:23:17.687Z,8.73
2023-08-20T08:25:44.889Z,7.72
2023-08-20T08:28:11.912Z,8.82
2023-08-20T08:30:39.764Z,8.23
2023-08-20T08:33:06.830Z,8.57
2023-08-20T08:35:33.898Z,8.15
2023-08-20T08:38:04.777Z,8.57
2023-08-20T08:40:32.110Z,8.90
2023-08-20T08:42:59.865Z,8.68
2023-08-20T08:45:28.153Z,9.18
2023-08-20T08:47:56.578Z,8.93
2023-08-20T08:50:23.892Z,8.32
2023-08-20T08:52:54.015Z,8.65
2023-08-20T08:55:21.368Z,8.45
2023-08-20T08:57:48.823Z,8.68
2023-08-20T09:00:16.479Z,8.70
2023-08-20T09:02:44.186Z,9.05
2023-08-20T09:05:12.582Z,9.05
2023-08-20T09:07:46.144Z,9.80
2023-08-20T09:10:13.848Z,8.80
2023-08-20T09:12:41.135Z,9.45
2023-08-20T09:15:12.825Z,8.77
2023-08-20T09:17:43.305Z,8.90
2023-08-20T09:20:10.986Z,8.90
2023-08-20T09:22:38.958Z,8.63
2023-08-20T09:25:06.445Z,9.13
2023-08-20T09:27:41.378Z,9.02
2023-08-20T09:30:09.186Z,9.10
2023-08-20T09:32:36.276Z,9.38
2023-08-20T09:35:03.484Z,9.65
2023-08-20T09:37:30.436Z,9.13
2023-08-20T09:39:57.664Z,9.15
2023-08-20T09:42:29.336Z,8.63
2023-08-20T09:44:56.770Z,9.05
2023-08-20T09:47:25.820Z,8.73
2023-08-20T09:49:54.056Z,8.48
2023-08-20T09:52:27.221Z,8.73
2023-08-20T09:55:10.082Z,8.45
2023-08-20T09:57:41.977Z,8.55
2023-08-20T10:00:13.469Z,8.50
2023-08-20T10:02:42.025Z,8.82
2023-08-20T10:05:13.355Z,8.68
2023-08-20T10:10:15.066Z,8.23
2023-08-20T10:12:43.296Z,7.88
2023-08-20T10:15:11.749Z,8.50
2023-08-20T10:17:40.759Z,8.65
2023-08-20T10:20:12.168Z,8.20
2023-08-20T10:22:43.960Z,8.20
2023-08-20T10:25:24.322Z,7.82
2023-08-20T10:27:51.654Z,8.20
2023-08-20T10:30:22.564Z,8.70
2023-08-20T10:32:51.606Z,8.30
2023-08-20T10:35:24.971Z,8.23
2023-08-20T10:38:19.584Z,8.65
2023-08-20T10:40:57.201Z,8.55
2023-08-20T10:43:35.785Z,8.65
2023-08-20T10:46:26.667Z,7.75
2023-08-20T10:49:02.497Z,8.80
2023-08-20T10:51:34.650Z,8.05
2023-08-20T10:54:08.419Z,8.88
2023-08-20T10:56:44.815Z,9.00
2023-08-20T10:59:32.024Z,8.18
2023-08-20T11:02:00.559Z,8.52
2023-08-20T11:04:35.760Z,8.85
2023-08-20T11:07:04.391Z,8.85
2023-08-20T11:09:32.472Z,8.52
2023-08-20T11:12:00.569Z,8.88
2023-08-20T11:14:27.962Z,9.20
2023-08-20T11:16:55.523Z,8.55
2023-08-20T11:19:24.165Z,8.98
2023-08-20T11:21:52.255Z,8.63
2023-08-20T11:24:21.127Z,8.80
2023-08-20T11:26:48.767Z,9.13
2023-08-20T11:29:21.211Z,9.07
2023-08-20T11:31:49.835Z,9.35
2023-08-20T11:34:17.827Z,8.68
2023-08-20T11:36:45.209Z,9.00
2023-08-20T11:39:12.695Z,9.10
2023-08-20T11:41:40.820Z,8.85
2023-08-20T11:44:10.502Z,8.70
2023-08-20T11:46:44.473Z,8.77
2023-08-20T11:49:12.888Z,8.60
2023-08-20T11:51:41.774Z,9.02
2023-08-20T11:54:11.402Z,9.25
2023-08-20T11:56:46.693Z,8.73
2023-08-20T11:59:15.213Z,9.35
2023-08-20T12:01:42.489Z,8.48
2023-08-20T12:04:11.349Z,8.65
2023-08-20T12:06:39.576Z,7.88
2023-08-20T12:09:26.847Z,7.90
2023-08-20T12:11:57.319Z,8.32
2023-08-20T12:14:24.996Z,8.47
2023-08-20T12:16:52.697Z,9.00
2023-08-20T12:19:20.206Z,11.43
2023-08-20T12:21:47.361Z,10.50
2023-08-20T12:24:14.813Z,10.50
2023-08-20T12:26:41.996Z,10.50
2023-08-20T12:29:09.721Z,8.68
2023-08-20T12:31:37.152Z,9.15
2023-08-20T12:34:04.698Z,9.68
2023-08-20T12:36:32.008Z,9.48
2023-08-20T12:38:59.401Z,10.75
2023-08-20T12:41:26.798Z,11.80
2023-08-20T12:43:53.968Z,11.00
2023-08-20T12:46:21.610Z,11.38
2023-08-20T12:48:48.853Z,11.43
2023-08-20T12:51:18.450Z,11.85
2023-08-20T12:53:45.808Z,12.15
2023-08-20T12:56:13.261Z,11.02
2023-08-20T12:58:40.569Z,11.02
2023-08-20T13:01:08.338Z,9.90
2023-08-20T13:03:36.212Z,9.73
2023-08-20T13:06:03.706Z,9.18
2023-08-20T13:08:31.964Z,10.07
2023-08-20T13:10:59.677Z,11.05
2023-08-20T13:13:27.354Z,10.13
2023-08-20T13:15:55.408Z,9.70
2023-08-20T13:18:26.596Z,9.82
2023-08-20T13:20:54.659Z,9.50
2023-08-20T13:23:21.964Z,8.90
2023-08-20T13:25:49.123Z,9.60
2023-08-20T13:28:16.344Z,9.40
2023-08-20T13:30:43.627Z,9.23
2023-08-20T13:33:10.685Z,10.05
2023-08-20T13:35:37.961Z,10.25
2023-08-20T13:38:05.932Z,9.35
2023-08-20T13:40:33.154Z,9.45
2023-08-20T13:43:00.381Z,10.32
2023-08-20T13:45:27.632Z,9.15
2023-08-20T13:47:54.884Z,8.88
2023-08-20T13:50:22.357Z,8.65
2023-08-20T13:52:49.560Z,8.75
2023-08-20T13:55:16.894Z,8.52
2023-08-20T13:57:44.164Z,8.68
2023-08-20T14:00:13.888Z,7.93
2023-08-20T14:02:41.747Z,8.52
2023-08-20T14:05:09.641Z,8.30
2023-08-20T14:07:36.900Z,7.90
2023-08-20T14:10:05.617Z,7.70
2023-08-20T14:12:33.067Z,7.43
2023-08-20T14:15:00.198Z,7.65
2023-08-20T14:17:28.590Z,8.63
2023-08-20T14:19:55.660Z,7.78
2023-08-20T14:22:23.014Z,8.18
2023-08-20T14:24:49.930Z,8.00
2023-08-20T14:27:17.018Z,8.43
2023-08-20T14:29:44.145Z,7.85
2023-08-20T14:32:11.422Z,7.97
2023-08-20T14:34:38.435Z,8.07
2023-08-20T14:37:05.633Z,8.43
2023-08-20T14:39:33.049Z,8.68
2023-08-20T14:42:00.849Z,8.27
2023-08-20T14:44:28.727Z,8.82
2023-08-20T14:46:56.052Z,8.70
2023-08-20T14:49:23.157Z,8.40
2023-08-20T14:51:50.766Z,8.90
2023-08-20T14:54:17.799Z,9.00
2023-08-20T14:56:45.771Z,8.73
2023-08-20T14:59:12.812Z,8.80
2023-08-20T15:01:40.091Z,9.52
2023-08-20T15:04:08.124Z,8.82
2023-08-20T15:06:35.390Z,9.45
2023-08-20T15:09:02.372Z,8.70
2023-08-20T15:11:29.509Z,9.45
2023-08-20T15:13:56.778Z,9.98
2023-08-20T15:16:23.987Z,9.00
2023-08-20T15:18:51.311Z,8.80
2023-08-20T15:21:18.503Z,8.88
2023-08-20T15:23:45.794Z,8.90
2023-08-20T15:26:13.439Z,9.18
2023-08-20T15:28:40.773Z,8.80
2023-08-20T15:31:08.873Z,9.35
2023-08-20T15:33:36.108Z,8.35
2023-08-20T15:36:04.288Z,8.68
2023-08-20T15:38:31.270Z,8.45
2023-08-20T15:41:00.350Z,8.65
2023-08-20T15:43:28.475Z,9.15
2023-08-20T15:45:58.471Z,8.50
2023-08-20T15:48:25.484Z,8.60
2023-08-20T15:50:52.659Z,9.10
2023-08-20T15:53:19.901Z,8.35
2023-08-20T15:55:48.035Z,8.32
2023-08-20T15:58:15.247Z,8.50
2023-08-20T16:00:42.334Z,8.05
2023-08-20T16:03:10.165Z,8.48
2023-08-20T16:05:37.183Z,8.73
2023-08-20T16:08:04.667Z,8.60
2023-08-20T16:10:31.954Z,8.38
2023-08-20T16:12:59.155Z,8.45
2023-08-20T16:15:27.253Z,7.97
2023-08-20T16:17:55.849Z,8.38
2023-08-20T16:20:23.376Z,7.45
2023-08-20T16:22:50.761Z,8.73
2023-08-20T16:25:17.969Z,7.90
2023-08-20T16:27:45.168Z,8.45
2023-08-20T16:30:12.773Z,8.10
2023-08-20T16:32:40.238Z,8.00
2023-08-20T16:35:07.965Z,8.63
2023-08-20T16:37:35.569Z,8.40
2023-08-20T16:40:06.625Z,7.85
2023-08-20T16:42:33.861Z,7.97
2023-08-20T16:45:00.996Z,8.27
2023-08-20T16:47:28.139Z,8.05
2023-08-20T16:49:55.351Z,8.25
2023-08-20T16:52:22.368Z,8.00
2023-08-20T16:54:49.563Z,9.23
2023-08-20T16:57:16.787Z,9.32
2023-08-20T16:59:43.910Z,8.98
2023-08-20T17:02:11.102Z,9.25
2023-08-20T17:04:38.177Z,7.78
2023-08-20T17:07:05.567Z,7.80
2023-08-20T17:09:32.832Z,6.45
2023-08-20T17:12:00.429Z,6.80
2023-08-20T17:14:28.290Z,5.97
2023-08-20T17:16:56.272Z,6.00
2023-08-20T17:19:24.270Z,4.80
2023-08-20T17:21:51.931Z,5.20
2023-08-20T17:24:19.609Z,4.93
2023-08-20T17:26:47.021Z,5.30
2023-08-20T17:29:14.107Z,5.35
2023-08-20T17:31:41.320Z,5.30
2023-08-20T17:34:09.475Z,5.47
2023-08-20T17:36:36.765Z,5.30
2023-08-20T17:39:04.810Z,5.22
2023-08-20T17:41:32.428Z,5.57
2023-08-20T17:43:59.663Z,5.20
2023-08-20T17:46:26.912Z,5.32
2023-08-20T17:48:54.071Z,5.72
2023-08-20T17:51:21.215Z,5.40
2023-08-20T17:53:48.180Z,5.97
2023-08-20T17:56:15.430Z,5.70
2023-08-20T17:58:42.504Z,5.68
2023-08-20T18:01:09.780Z,5.80
2023-08-20T18:03:36.854Z,6.10
2023-08-20T18:06:04.012Z,6.80
2023-08-20T18:08:31.235Z,6.97
2023-08-20T18:11:00.012Z,6.80
2023-08-20T18:13:27.427Z,6.75
2023-08-20T18:15:54.552Z,7.30
2023-08-20T18:18:21.628Z,8.00
2023-08-20T18:20:48.923Z,7.70
2023-08-20T18:23:18.041Z,8.10
2023-08-20T18:25:45.236Z,8.60
2023-08-20T18:28:12.391Z,9.00
2023-08-20T18:30:39.496Z,8.20
2023-08-20T18:33:06.733Z,7.82
2023-08-20T18:35:40.988Z,7.63
2023-08-20T18:38:19.998Z,7.65
2023-08-20T18:40:47.940Z,7.38
2023-08-20T18:43:15.211Z,7.50
2023-08-20T18:45:43.252Z,6.93
2023-08-20T18:48:10.831Z,7.70
2023-08-20T18:50:40.231Z,7.85
2023-08-20T18:53:08.631Z,7.40
2023-08-20T18:55:36.015Z,6.93
2023-08-20T18:58:03.509Z,6.18
2023-08-20T19:00:30.961Z,5.93
2023-08-20T19:02:58.183Z,5.53
2023-08-20T19:05:25.411Z,6.07
2023-08-20T19:07:54.322Z,6.18
2023-08-20T19:10:21.388Z,6.07
2023-08-20T19:12:48.644Z,6.30
2023-08-20T19:15:15.688Z,6.80
2023-08-20T19:17:42.798Z,6.72
2023-08-20T19:20:10.343Z,6.72
2023-08-20T19:22:39.443Z,6.22
2023-08-20T19:25:08.085Z,5.90
2023-08-20T19:27:35.642Z,6.10
2023-08-20T19:30:08.425Z,5.75
2023-08-20T19:32:36.936Z,5.40
2023-08-20T19:35:07.113Z,5.82
2023-08-20T19:37:34.318Z,5.25
2023-08-20T19:40:02.340Z,4.90
2023-08-20T19:42:29.549Z,5.55
2023-08-20T19:44:58.251Z,4.63
2023-08-20T19:47:25.509Z,5.13
2023-08-20T19:49:52.908Z,5.50
2023-08-20T19:52:20.286Z,4.70
2023-08-20T19:54:47.938Z,5.38
2023-08-20T19:57:16.106Z,6.00
2023-08-20T19:59:43.183Z,5.82
2023-08-20T20:02:10.239Z,6.10
2023-08-20T20:04:39.583Z,5.97
2023-08-20T20:09:49.907Z,5.93
2023-08-20T20:12:21.210Z,6.40
2023-08-20T20:14:50.499Z,7.45
2023-08-20T20:17:21.979Z,8.07
2023-08-20T20:19:54.505Z,8.77
2023-08-20T20:22:27.824Z,9.23
2023-08-20T20:24:59.018Z,9.27
2023-08-20T20:27:28.035Z,8.85
2023-08-20T20:29:57.326Z,9.20
2023-08-20T20:32:26.117Z,8.68
2023-08-20T20:34:54.492Z,8.60
2023-08-20T20:37:21.609Z,8.23
2023-08-20T20:39:48.762Z,7.90
2023-08-20T20:42:15.844Z,8.15
2023-08-20T20:44:44.058Z,8.15
2023-08-20T20:47:11.728Z,8.00
2023-08-20T20:49:39.045Z,7.53
2023-08-20T20:52:06.856Z,7.80
2023-08-20T20:54:34.000Z,7.88
2023-08-20T20:57:01.247Z,7.28
2023-08-20T20:59:28.384Z,7.65
2023-08-20T21:01:55.479Z,7.03
2023-08-20T21:04:22.636Z,7.43
2023-08-20T21:06:51.416Z,7.00
2023-08-20T21:09:18.749Z,7.60
2023-08-20T21:11:45.911Z,7.18
2023-08-20T21:14:12.964Z,7.65
2023-08-20T21:16:40.088Z,7.88
2023-08-20T21:19:07.400Z,7.25
2023-08-20T21:21:34.562Z,7.15
2023-08-20T21:24:01.631Z,7.95
2023-08-20T21:26:28.600Z,7.90
2023-08-20T21:28:55.512Z,7.60
2023-08-20T21:31:22.520Z,8.13
2023-08-20T21:33:49.499Z,8.27
2023-08-20T21:36:16.568Z,8.10
2023-08-20T21:38:43.413Z,8.32
2023-08-20T21:41:10.539Z,8.57
2023-08-20T21:43:37.758Z,8.63
2023-08-20T21:46:06.270Z,8.95
2023-08-20T21:48:33.389Z,8.80
2023-08-20T21:51:00.243Z,8.57
2023-08-20T21:53:27.484Z,8.43
2023-08-20T21:55:56.384Z,8.52
2023-08-20T21:58:23.807Z,8.63
2023-08-20T22:00:50.916Z,8.05
2023-08-20T22:03:17.931Z,7.88
2023-08-20T22:05:44.948Z,8.30
2023-08-20T22:08:14.444Z,7.30
2023-08-20T22:10:43.012Z,7.75
2023-08-20T22:13:10.327Z,8.23
2023-08-20T22:15:37.345Z,7.85
2023-08-20T22:18:04.556Z,8.60
2023-08-20T22:20:31.530Z,9.02
2023-08-20T22:22:58.553Z,9.25
2023-08-20T22:25:25.821Z,8.82
2023-08-20T22:27:52.955Z,9.38
2023-08-20T22:30:21.396Z,8.55
2023-08-20T22:32:48.355Z,8.45
2023-08-20T22:35:15.374Z,8.73
2023-08-20T22:37:43.484Z,8.25
2023-08-20T22:40:10.737Z,8.85
2023-08-20T22:42:38.073Z,8.90
2023-08-20T22:45:05.743Z,8.88
2023-08-20T22:47:32.828Z,9.05
2023-08-20T22:49:59.799Z,8.27
2023-08-20T22:52:26.912Z,8.85
2023-08-20T22:54:53.854Z,8.88
2023-08-20T22:57:20.831Z,8.63
2023-08-20T22:59:48.152Z,8.80
2023-08-20T23:02:15.037Z,9.40
2023-08-20T23:04:43.141Z,8.82
2023-08-20T23:07:11.147Z,8.57
2023-08-20T23:09:38.136Z,9.73
2023-08-20T23:12:05.434Z,9.60
2023-08-20T23:14:32.264Z,10.88
2023-08-20T23:16:59.342Z,10.63
2023-08-20T23:19:27.002Z,9.82
2023-08-20T23:21:53.956Z,10.63
2023-08-20T23:24:22.883Z,10.52
2023-08-20T23:26:51.054Z,10.65
2023-08-20T23:29:18.501Z,10.85
2023-08-20T23:31:45.926Z,10.85
2023-08-20T23:34:12.978Z,10.95
2023-08-20T23:36:39.819Z,10.43
2023-08-20T23:39:06.768Z,10.80
2023-08-20T23:41:33.908Z,10.63
2023-08-20T23:44:00.888Z,10.07
2023-08-20T23:46:46.498Z,9.80
2023-08-20T23:49:14.999Z,9.38
2023-08-20T23:51:41.840Z,8.95
2023-08-20T23:54:09.856Z,8.98
2023-08-20T23:56:36.761Z,8.80
2023-08-20T23:59:03.862Z,9.07
